Timeline UpdatesTrip UpdatesNews PostsPvt PostsTravel TipsAdmin PostsConv PostsFollowed PostsChat RequestsBlog PostsPNR Posts

Disclaimer
Search
 
 
Wed Aug 27, 2014 18:21:49 ISTHomeTrainsΣChainsAtlasPNRForumGalleryNewsFAQTripsMembersLoginFeedback
No Recent News for this Train
Other Trains in the News **new
Latest...
..
Fri Jul 18, 2014 (11:57PM)
⇐ Return Journey: Train# 18110-Slip

18101/Tatanagar-Jammu Tawi MURI Express

Apr 08 2014 (12:26PM)
Change Departure Station:
Change Arrival Station:
Post a Train Travel TipPost a Train Travel Tip **new
Post a Comment/Question/Picture/VideoPost a Comment/Question/Picture/Video
Pantry/Catering
✓ Pantry Car Avbl
✓ Catering Avbl
Pantry Car is available from Muri To Jammu Tawi because...
Read more...
Pantry Car is attached in Rourkela-Jammu Tawi Exp
Loco/Rake Reversals
ASR/Amritsar Junction (5); PTK/Pathankot Junction (4);
RSA - Rake Sharing
None
Rake/Coach Composition
SLR-GEN-GEN-ST11-ST10-ST9-ST8-ST7-B2-SLR
Loco
TATA WAM-4 (TATA-BRKA); PTRU WDM-3A (BRKA-CAR); GZB WAP-4 (CAR-ASR); LDH...
Read more...
WDM-3A (ASR-JAT)
News    PNR    Forum    Time-Table    Availability    Fare Chart    Map    Arr/Dep History    Trips    Gallery    ΣChains    X/O    Timeline    
Travel Time: 27h 0m    38 halts    Distance: 1245 km    Avg Speed: 46 km/hr
Type: Mail/Express
Zone: SER/South Eastern
Departs @ 14:50 (Avg 2m late)
Platform# 1
SMTWTFS
Tatanagar Junction/TATA 
Arrives @ 17:50 +1 night (Avg 3h 20m late)
Platform# 3
SMTWTFS
Aligarh Junction/ALJN 

38 halts. 163 intermediate Stations between Tatanagar Junction and Aligarh Junction

Show ALL intermediate Stations  Show Old Time-Table

#CodeStation NameX/OArrivesAvgDepartsAvgHaltPFDay#KmSpeedElevZoneAddress
1TATA»Tatanagar Junction (5)»  -14:50+2110.040164mSER91-657-2423026, Jharkhand
2CNIChandil Junction (4)  15:42+015:44+22m--134.861178mSERChandil, Jharkhand
3MURIMuri Junction (3)X16:50+2317:30+3440m31102.453254mSER06522-222444, Jharkhand
4RMTRamgarh Cantt. (1)O  18:30+3018:35+305m11155.48352mSERRamgarh District, Jharkhand
5BRKABarkakana Junction (4)19:15+1219:35+1420m31160.758341mECR0653-255225, Jharkhand
6PTRUPatratu (3)  19:54+2419:55+261m21179.160373mECRDistt: Ramgarh, Jharkhand
7RAYRay (2)  20:22+2820:24+282m--1206.2109447mECRRanchi, Jharkhand
8KLREKhalari (3)  20:29+3320:30+341m--1215.363459mECRKhelari, Jharkhand
9TORITori (2)  20:57+4520:58+461m21243.556515mECRChandwa, Jharkhand
10LTHRLatehar (2)  21:33+4121:34+421m21276.060381mECRLatehar, Jharkhand
11BRWDBarwadih Junction (3)  22:14+4122:19+405m11316.178295mECRDist. Latehar, Jharkhand
12DTODaltonGanj (3)X  22:40+4422:45+445m11343.659234mECR230812, Jharkhand
13GHDGarhwa Road Junction (3)  23:19+4623:21+472m11376.967188mECRPalamu, Jharkhand
14GHQGarhwa (1)  23:30+5623:31+571m11387.060211mECRGarhwa, Jharkhand
15NUQNagar Untari (1)O  00:05+5800:06+1:011m12421.021248mECRGarhwa, Jharkhand
16WDMWyndhamGanj (1)XO  00:39+4300:40+451m12432.735243mECRSonebhadra, Uttar Pradesh
17DXNDuddhinagar  01:19+3201:20+341m22455.337250mECRSonebhadra, Uttar Pradesh
18RNQRenukut (3)  01:54+2901:55+341m12476.429310mECRSonbhadra, Uttar Pradesh
19CPUChopan (3)  03:20+1303:30+1410m22518.145194mECRSH 5A Sonebhadra, Uttar Pradesh
20CUKChurk (1)  03:59-04:00-1m12539.921316mNCRState Highway 14, Uttar Pradesh
21RBGJRoberts Ganj (1)  04:14-04:15-1m12544.734318mNCRRobertsganj, Uttar Pradesh
22CARChunar Junction (5)XO06:30+2706:40+5310m42620.76585mNCRChunar Junction, Uttar Pradesh
23MZPMirzapur (3)X  07:09+1:2507:10+1:291m--2652.04088mNCRMirzapur, Uttar Pradesh
24BDLVindhyachal (3)  07:21+1:3307:22+1:371m--2659.37588mNCRMirzapur, Uttar Pradesh
25MJAMeja Road (4)X  07:57+1:5707:58+1:581m--2703.05594mNCRDistrict Allahabad, Uttar Pradesh
26ALDAllahabad Junction (10)X  08:40+2:2409:05+2:1825m32741.579100mNCRAllahabad 211003, Uttar Pradesh
27FTPFatehpur (3)  10:34+2:3410:35+2:381m32858.244120mNCRFatehpur, Uttar Pradesh
28CNBKanpur Central (10)X  12:20+2:1012:30+2:1910m72935.836128mNCRKANPUR-208 001, Uttar Pradesh
29PNKPanki (3)X  12:49+2:3312:50+2:361m32947.462129mNCRKANPUR-208 020, Uttar Pradesh
30RURARura (4)XO  13:22+2:3413:23+2:361m--2980.267137mNCRJhinjhak, Uttar Pradesh
31JJKJhinjhak (3)X  13:40+2:3513:41+2:381m32999.252140mNCRAuraiya, Uttar Pradesh
32PHDPhaphund (4)  14:04+2:3414:05+2:371m--21019.078146mNCRdist. Auraiya, Uttar Pradesh
33BNTBharthana (3)  14:33+2:3814:34+2:421m--21055.352147mNCRBharthana, Uttar Pradesh
34ETWEtawah (5)  14:57+2:4014:58+2:441m221075.298154mNCRDistt. Etawah, Uttar Pradesh
35SKBShikohabad Junction (4)X  15:32+2:5315:33+2:561m321130.666166mNCRDistrict Firozabad, Uttar Pradesh
36FZDFirozabad (4)XO  15:51+2:5815:52+3:021m321150.528164mNCRFirozabad, Uttar Pradesh
37TDLTundla Junction (5)  16:28+2:5316:38+2:5110m221167.070167mNCRDistt.Firozabad, Uttar Pradesh
38JLSJalesar Road (1)  17:02+3:0317:03+3:071m121194.955172mNCRMDR 106W, Uttar Pradesh
39HRSHathras Junction (3)X  17:25+3:0317:26+3:071m221215.075183mNCRMahamaya Nagar(05722-242803), Uttar Pradesh
40ALJN•Aligarh Junction (4)•X  17:50+3:2017:55+3:225m321245.287192mNCRAligarh, Uttar Pradesh
41KRJKhurja Junction (4)O  18:25+3:3218:27+3:332m--21288.729199mNCRBulandshahr, Uttar Pradesh
42GZBGhaziabad Junction (6)X  20:35+2:4120:40+2:385m221351.322217mNRGhaziabad, Uttar Pradesh
43DLIOld Delhi Junction (16)  21:35+2:3022:00+2:3325m1021371.413219mNRNear Chandni Chowk Metro Station, Delhi NCT
44SZMDelhi Sabzi Mandi (2)X  22:14+2:3722:15+2:381m--21374.467220mNRGulabi Bagh, Delhi NCT
45SNPSonipat (3)O  22:51+2:5422:52+2:571m--21414.743225mNRSonipat, Haryana
46PNPPanipat Junction (5)  23:55+1:4923:57+1:492m321459.969235mNRPanipat, Haryana
47KUNKarnal (3)  00:27+2:1600:28+2:171m231494.336253mNRKarnal, Haryana
48KKDEKurukshetra Junction (3)X  01:23+1:5001:25+1:502m131527.463260mNRKurukshetra, Haryana
49SHDMShahbad Markanda (2)X  01:46+2:0301:47+2:031m231549.625267mNRShahabad Markanda, Haryana
50UMBAmbala Cantt. Junction (7)X  02:35+1:5002:45+1:5110m731569.532278mNRAmbala 133001, Haryana
51UBCAmbala City (3)XO  02:59+1:5003:00+1:511m331577.172273mNRNH-1, Haryana
52RPJRajpura Junction (3)X  03:17+1:5503:18+1:561m131597.553272mNRNH-1, Punjab
53LDHLudhiana Junction (7)X  04:55+1:5005:05+2:0910m331683.131246mNRLudhiana 141001, Punjab
54PHRPhillaur Junction (3)  05:30+2:0405:31+2:051m231696.268246mNRPhillaur, Punjab
55PGWPhagwara Junction (3)X  05:51+2:0205:52+2:031m231718.844245mNRPhagwara, Punjab
56JRCJalandhar Cantt. Junction (3)X  06:14+2:0006:16+2:012m131735.132239mNRNear Rama Mandi, Punjab
57JUCJalandhar City Junction (5)X  06:25+1:5906:30+2:015m131739.957239mNRJalandhar 144001, Punjab
58BEASBeas Junction (2)  07:08+1:5907:09+2:001m131776.063238mNRBeas, Punjab
59ASRAmritsar Junction (5)07:50+2:0708:20+2:1030m231819.047233mNRAmritsar 143002, Punjab
60BATBatala Junction (2)  09:10+2:1109:12+2:122m--31858.159250mNRBatala, Punjab
61DHWDhariwal (1)  09:31+2:1409:32+2:151m131876.864259mNRDhariwal, Punjab
62GSPGurdaspur (2)  09:45+2:1109:46+2:131m--31890.861265mNRGurdaspur, Punjab
63DNNDina Nagar (2)  09:57+2:1509:58+2:161m--31901.924273mNRDinanagar, Punjab
64PTKPathankot Junction (4)X11:00+1:5511:20+1:5920m--31926.248331mNRnear ISBT, Punjab
65KTHUKathua (2)X  11:49+2:0311:50+2:051m131949.638396mNRdistt. kathua, Jammu and Kashmir
66HRNRHira Nagar (2)T12:36+2:0112:38+2:012m131978.449380mNRHiranagar, Jammu and Kashmir
67SMBXSamba (2)  12:56+2:0012:57+2:031m231993.221365mNRDist. Samba, Jammu and Kashmir
68VJPJVijaypur Jammu (2)  13:29+1:4613:30+1:501m132004.632353mNRdistt. samba, Jammu and Kashmir
69JATJammu Tawi (3)  14:10+1:22-332025.9-337mNRJammu 180002, Jammu and Kashmir
Scroll to Top
Scroll to Bottom